createdAt,value
2024-02-29T00:02:20.520Z,7.07
2024-02-29T00:04:47.298Z,8.65
2024-02-29T00:07:15.512Z,7.13
2024-02-29T00:09:42.315Z,9.07
2024-02-29T00:12:09.156Z,9.50
2024-02-29T00:14:38.549Z,8.88
2024-02-29T00:17:05.318Z,10.85
2024-02-29T00:19:32.075Z,10.90
2024-02-29T00:21:58.872Z,10.13
2024-02-29T00:24:26.982Z,10.82
2024-02-29T00:26:53.754Z,11.65
2024-02-29T00:29:20.645Z,12.43
2024-02-29T00:31:47.521Z,12.15
2024-02-29T00:34:14.587Z,12.43
2024-02-29T00:36:41.517Z,13.30
2024-02-29T00:39:14.351Z,12.05
2024-02-29T00:41:43.317Z,10.98
2024-02-29T00:44:10.596Z,12.82
2024-02-29T00:46:38.321Z,10.23
2024-02-29T00:49:05.722Z,11.40
2024-02-29T00:51:32.562Z,9.85
2024-02-29T00:53:59.730Z,10.07
2024-02-29T00:56:26.540Z,10.55
2024-02-29T00:58:54.673Z,10.00
2024-02-29T01:01:21.718Z,10.70
2024-02-29T01:03:48.619Z,9.95
2024-02-29T01:06:15.502Z,10.68
2024-02-29T01:08:42.278Z,10.85
2024-02-29T01:11:09.137Z,11.02
2024-02-29T01:13:35.922Z,10.90
2024-02-29T01:16:04.567Z,10.45
2024-02-29T01:18:31.431Z,9.88
2024-02-29T01:20:58.320Z,10.27
2024-02-29T01:23:25.069Z,11.75
2024-02-29T01:25:51.821Z,10.90
2024-02-29T01:28:18.676Z,10.43
2024-02-29T01:30:45.503Z,10.93
2024-02-29T01:33:13.732Z,9.65
2024-02-29T01:35:40.495Z,10.50
2024-02-29T01:38:07.285Z,10.35
2024-02-29T01:40:34.035Z,10.63
2024-02-29T01:43:00.881Z,9.85
2024-02-29T01:45:27.645Z,10.02
2024-02-29T01:47:54.501Z,8.60
2024-02-29T01:50:25.017Z,9.43
2024-02-29T01:52:52.025Z,10.23
2024-02-29T01:55:19.046Z,9.73
2024-02-29T01:57:46.061Z,9.07
2024-02-29T02:00:13.839Z,10.65
2024-02-29T02:02:40.681Z,9.48
2024-02-29T02:05:08.502Z,8.93
2024-02-29T02:07:37.385Z,9.88
2024-02-29T02:10:04.666Z,10.43
2024-02-29T02:12:31.532Z,9.90
2024-02-29T02:14:58.389Z,9.90
2024-02-29T02:17:25.181Z,9.13
2024-02-29T02:19:52.722Z,9.48
2024-02-29T02:22:20.781Z,8.73
2024-02-29T02:24:47.577Z,9.02
2024-02-29T02:27:14.320Z,9.27
2024-02-29T02:29:41.106Z,9.30
2024-02-29T02:32:07.923Z,9.98
2024-02-29T02:34:34.693Z,9.48
2024-02-29T02:37:01.520Z,8.98
2024-02-29T02:39:29.688Z,9.13
2024-02-29T02:41:56.492Z,9.75
2024-02-29T02:44:23.246Z,9.63
2024-02-29T02:46:50.003Z,7.85
2024-02-29T02:49:16.797Z,9.18
2024-02-29T02:51:43.612Z,8.02
2024-02-29T02:54:10.394Z,7.78
2024-02-29T02:56:38.508Z,8.55
2024-02-29T02:59:05.275Z,9.07
2024-02-29T03:01:32.056Z,8.70
2024-02-29T03:03:58.870Z,9.38
2024-02-29T03:06:25.647Z,9.90
2024-02-29T03:08:52.410Z,8.07
2024-02-29T03:11:19.204Z,8.65
2024-02-29T03:13:47.346Z,9.27
2024-02-29T03:16:21.664Z,8.88
2024-02-29T03:18:48.461Z,9.05
2024-02-29T03:21:15.498Z,7.07
2024-02-29T03:23:42.316Z,9.20
2024-02-29T03:26:09.177Z,9.38
2024-02-29T03:28:36.044Z,8.52
2024-02-29T03:31:04.572Z,8.88
2024-02-29T03:33:31.431Z,8.30
2024-02-29T03:35:58.324Z,9.63
2024-02-29T03:38:25.127Z,7.57
2024-02-29T03:40:51.929Z,10.25
2024-02-29T03:43:18.726Z,10.38
2024-02-29T03:45:45.558Z,9.10
2024-02-29T03:48:13.734Z,8.15
2024-02-29T03:50:40.645Z,8.77
2024-02-29T03:53:07.412Z,7.53
2024-02-29T03:55:34.174Z,8.90
2024-02-29T03:58:00.942Z,7.85
2024-02-29T04:00:27.736Z,8.98
2024-02-29T04:02:54.519Z,9.35
2024-02-29T04:05:22.698Z,9.55
2024-02-29T04:07:49.481Z,8.70
2024-02-29T04:10:16.498Z,6.80
2024-02-29T04:12:43.440Z,7.65
2024-02-29T04:15:10.556Z,8.52
2024-02-29T04:17:37.373Z,7.93
2024-02-29T04:20:04.909Z,7.93
2024-02-29T04:22:33.042Z,9.25
2024-02-29T04:24:59.897Z,8.88
2024-02-29T04:27:26.783Z,9.65
2024-02-29T04:29:53.604Z,9.30
2024-02-29T04:32:20.356Z,10.43
2024-02-29T04:34:48.080Z,8.73
2024-02-29T04:37:14.873Z,7.78
2024-02-29T04:39:43.089Z,8.40
2024-02-29T04:42:09.890Z,8.45
2024-02-29T04:44:36.697Z,9.75
2024-02-29T04:47:03.685Z,8.40
2024-02-29T04:49:30.477Z,7.65
2024-02-29T04:51:57.284Z,9.80
2024-02-29T04:54:24.094Z,6.85
2024-02-29T04:56:52.209Z,7.57
2024-02-29T04:59:18.976Z,8.32
2024-02-29T05:01:45.852Z,8.98
2024-02-29T05:04:12.749Z,10.02
2024-02-29T05:06:39.659Z,8.73
2024-02-29T05:09:06.664Z,7.90
2024-02-29T05:11:35.056Z,8.07
2024-02-29T05:14:04.664Z,9.65
2024-02-29T05:16:31.709Z,8.88
2024-02-29T05:18:58.566Z,9.73
2024-02-29T05:21:25.501Z,7.75
2024-02-29T05:23:52.525Z,9.43
2024-02-29T05:26:19.884Z,9.65
2024-02-29T05:28:46.772Z,9.75
2024-02-29T05:31:15.197Z,10.52
2024-02-29T05:33:42.402Z,9.38
2024-02-29T05:36:09.425Z,8.82
2024-02-29T05:38:36.494Z,11.73
2024-02-29T05:41:04.657Z,10.50
2024-02-29T05:43:34.699Z,7.95
2024-02-29T05:46:02.588Z,7.20
2024-02-29T05:48:30.684Z,8.70
2024-02-29T05:50:57.417Z,8.88
2024-02-29T05:53:24.317Z,9.35
2024-02-29T05:55:51.103Z,8.30
2024-02-29T05:58:17.857Z,10.27
2024-02-29T06:00:44.819Z,10.52
2024-02-29T06:03:11.613Z,10.32
2024-02-29T06:05:39.725Z,12.13
2024-02-29T06:08:06.535Z,11.27
2024-02-29T06:10:33.316Z,8.15
2024-02-29T06:13:00.098Z,10.25
2024-02-29T06:15:26.899Z,10.70
2024-02-29T06:17:53.826Z,8.43
2024-02-29T06:20:20.601Z,8.82
2024-02-29T06:22:48.937Z,10.00
2024-02-29T06:25:15.958Z,11.30
2024-02-29T06:27:42.796Z,9.52
2024-02-29T06:30:10.632Z,10.52
2024-02-29T06:32:37.537Z,9.45
2024-02-29T06:35:04.936Z,9.50
2024-02-29T06:37:31.706Z,10.10
2024-02-29T06:40:00.024Z,10.18
2024-02-29T06:42:26.960Z,9.82
2024-02-29T06:44:53.953Z,10.35
2024-02-29T06:47:20.750Z,10.05
2024-02-29T06:49:47.491Z,10.30
2024-02-29T06:52:14.339Z,10.70
2024-02-29T06:54:41.195Z,10.52
2024-02-29T06:57:09.291Z,10.20
2024-02-29T06:59:36.012Z,10.43
2024-02-29T07:02:02.874Z,10.63
2024-02-29T07:04:29.649Z,10.40
2024-02-29T07:06:56.562Z,11.18
2024-02-29T07:09:23.412Z,11.27
2024-02-29T07:11:50.205Z,11.00
2024-02-29T07:14:18.413Z,11.45
2024-02-29T07:16:45.187Z,10.32
2024-02-29T07:19:11.988Z,10.45
2024-02-29T07:21:38.895Z,11.77
2024-02-29T07:24:05.979Z,12.32
2024-02-29T07:26:32.743Z,12.32
2024-02-29T07:28:59.489Z,11.82
2024-02-29T07:31:27.608Z,12.55
2024-02-29T07:33:54.441Z,10.02
2024-02-29T07:36:21.239Z,13.02
2024-02-29T07:38:47.984Z,13.52
2024-02-29T07:41:14.843Z,11.80
2024-02-29T07:43:41.615Z,12.27
2024-02-29T07:46:08.453Z,10.93
2024-02-29T07:48:36.692Z,11.93
2024-02-29T07:51:03.619Z,11.95
2024-02-29T07:53:30.431Z,11.90
2024-02-29T07:55:57.284Z,12.38
2024-02-29T07:58:24.195Z,13.32
2024-02-29T08:00:51.040Z,14.68
2024-02-29T08:03:17.885Z,12.52
2024-02-29T08:05:46.078Z,13.55
2024-02-29T08:08:12.862Z,10.88
2024-02-29T08:10:39.649Z,12.65
2024-02-29T08:13:06.472Z,13.35
2024-02-29T08:15:33.305Z,11.55
2024-02-29T08:18:00.110Z,10.15
2024-02-29T08:20:27.112Z,11.48
2024-02-29T08:22:55.664Z,12.18
2024-02-29T08:25:22.644Z,13.48
2024-02-29T08:27:49.475Z,11.57
2024-02-29T08:30:16.598Z,12.68
2024-02-29T08:32:43.413Z,12.18
2024-02-29T08:35:11.114Z,13.85
2024-02-29T08:37:37.900Z,13.23
2024-02-29T08:40:07.769Z,12.50
2024-02-29T08:42:35.011Z,12.48
2024-02-29T08:45:01.918Z,12.35
2024-02-29T08:47:28.725Z,13.85
2024-02-29T08:49:55.521Z,12.82
2024-02-29T08:52:22.400Z,12.45
2024-02-29T08:54:49.221Z,12.15
2024-02-29T08:57:17.382Z,13.50
2024-02-29T08:59:44.142Z,11.57
2024-02-29T09:02:10.970Z,12.02
2024-02-29T09:04:37.834Z,11.27
2024-02-29T09:07:04.939Z,13.10
2024-02-29T09:09:31.769Z,10.18
2024-02-29T09:11:58.581Z,11.07
2024-02-29T09:14:26.653Z,11.30
2024-02-29T09:16:53.437Z,13.55
2024-02-29T09:19:20.253Z,12.20
2024-02-29T09:21:47.104Z,11.70
2024-02-29T09:24:16.066Z,13.18
2024-02-29T09:26:43.186Z,13.30
2024-02-29T09:29:10.024Z,11.35
2024-02-29T09:31:38.485Z,15.18
2024-02-29T09:34:05.338Z,11.15
2024-02-29T09:36:32.194Z,14.07
2024-02-29T09:38:58.972Z,11.82
2024-02-29T09:43:59.350Z,14.05
2024-02-29T09:46:26.176Z,12.70
2024-02-29T09:48:54.400Z,12.23
2024-02-29T09:51:21.995Z,12.60
2024-02-29T09:53:50.449Z,11.55
2024-02-29T09:56:20.282Z,13.40
2024-02-29T09:58:47.359Z,10.20
2024-02-29T10:01:14.466Z,12.20
2024-02-29T10:03:43.135Z,10.23
2024-02-29T10:06:12.273Z,11.80
2024-02-29T10:08:39.113Z,12.27
2024-02-29T10:11:06.782Z,11.82
2024-02-29T10:13:37.431Z,12.55
2024-02-29T10:16:04.863Z,12.52
2024-02-29T10:18:33.086Z,12.82
2024-02-29T10:20:59.883Z,11.48
2024-02-29T10:23:30.083Z,12.63
2024-02-29T10:25:56.973Z,12.50
2024-02-29T10:28:23.787Z,11.30
2024-02-29T10:30:51.100Z,12.18
2024-02-29T10:33:17.892Z,11.63
2024-02-29T10:35:44.782Z,10.52
2024-02-29T10:38:11.533Z,11.60
2024-02-29T10:40:39.706Z,11.88
2024-02-29T10:43:10.092Z,10.32
2024-02-29T10:45:42.503Z,9.65
2024-02-29T10:48:16.647Z,9.32
2024-02-29T10:50:53.117Z,10.20
2024-02-29T10:53:37.317Z,9.50
2024-02-29T10:56:11.921Z,9.63
2024-02-29T10:58:41.716Z,7.90
2024-02-29T11:01:08.761Z,9.02
2024-02-29T11:03:35.742Z,10.05
2024-02-29T11:06:03.288Z,10.05
2024-02-29T11:08:31.469Z,9.63
2024-02-29T11:10:58.301Z,9.27
2024-02-29T11:13:27.798Z,10.93
2024-02-29T11:15:56.629Z,9.82
2024-02-29T11:18:24.240Z,10.90
2024-02-29T11:21:02.021Z,12.27
2024-02-29T11:23:30.450Z,10.75
2024-02-29T11:25:57.239Z,12.23
2024-02-29T11:28:33.431Z,10.88
2024-02-29T11:31:12.408Z,10.70
2024-02-29T11:33:39.310Z,11.65
2024-02-29T11:36:06.396Z,8.63
2024-02-29T11:38:39.945Z,10.18
2024-02-29T11:41:20.961Z,10.30
2024-02-29T11:43:49.068Z,10.45
2024-02-29T11:46:15.855Z,10.27
2024-02-29T11:48:42.810Z,10.85
2024-02-29T11:51:09.739Z,9.95
2024-02-29T11:53:38.034Z,9.63
2024-02-29T11:56:14.031Z,10.20
2024-02-29T11:58:42.646Z,9.85
2024-02-29T12:01:10.885Z,12.05
2024-02-29T12:03:37.738Z,11.98
2024-02-29T12:06:05.657Z,12.77
2024-02-29T12:08:33.045Z,9.60
2024-02-29T12:11:00.898Z,11.02
2024-02-29T12:13:29.178Z,12.02
2024-02-29T12:15:56.851Z,10.25
2024-02-29T12:18:25.195Z,12.18
2024-02-29T12:20:52.137Z,12.18
2024-02-29T12:23:20.347Z,12.10
2024-02-29T12:25:47.477Z,12.40
2024-02-29T12:28:14.948Z,9.82
2024-02-29T12:30:42.530Z,12.93
2024-02-29T12:33:09.730Z,13.90
2024-02-29T12:35:37.945Z,14.10
2024-02-29T12:38:04.759Z,12.15
2024-02-29T12:40:33.934Z,12.07
2024-02-29T12:43:00.782Z,12.48
2024-02-29T12:45:28.436Z,13.40
2024-02-29T12:47:55.257Z,15.20
2024-02-29T12:50:22.158Z,11.02
2024-02-29T12:52:50.421Z,12.73
2024-02-29T12:55:17.249Z,11.90
2024-02-29T12:57:44.218Z,11.82
2024-02-29T13:00:19.179Z,11.52
2024-02-29T13:02:45.946Z,12.43
2024-02-29T13:05:12.733Z,11.13
2024-02-29T13:07:39.879Z,14.05
2024-02-29T13:10:08.610Z,11.68
2024-02-29T13:12:36.354Z,10.60
2024-02-29T13:15:03.598Z,9.88
2024-02-29T13:17:30.606Z,10.90
2024-02-29T13:19:57.397Z,10.32
2024-02-29T13:22:24.162Z,13.27
2024-02-29T13:24:50.949Z,11.13
2024-02-29T13:27:19.338Z,9.60
2024-02-29T13:29:46.094Z,11.00
2024-02-29T13:32:12.843Z,9.60
2024-02-29T13:34:39.634Z,9.80
2024-02-29T13:37:06.422Z,8.48
2024-02-29T13:39:33.231Z,10.85
2024-02-29T13:42:00.002Z,10.02
2024-02-29T13:44:28.114Z,10.45
2024-02-29T13:46:54.909Z,10.65
2024-02-29T13:49:22.995Z,10.85
2024-02-29T13:51:50.163Z,10.43
2024-02-29T13:54:16.964Z,9.73
2024-02-29T13:56:44.056Z,10.30
2024-02-29T13:59:10.953Z,10.75
2024-02-29T14:01:39.129Z,9.35
2024-02-29T14:04:05.940Z,11.13
2024-02-29T14:06:32.776Z,11.55
2024-02-29T14:08:59.699Z,11.00
2024-02-29T14:11:26.503Z,11.13
2024-02-29T14:13:53.274Z,10.07
2024-02-29T14:16:20.213Z,9.95
2024-02-29T14:18:49.458Z,11.95
2024-02-29T14:21:16.391Z,10.82
2024-02-29T14:23:43.256Z,10.50
2024-02-29T14:26:10.027Z,11.63
2024-02-29T14:28:36.821Z,10.52
2024-02-29T14:31:03.762Z,10.85
2024-02-29T14:33:30.618Z,9.55
2024-02-29T14:35:58.696Z,10.77
2024-02-29T14:38:25.675Z,10.88
2024-02-29T14:40:52.440Z,10.35
2024-02-29T14:43:19.190Z,9.02
2024-02-29T14:45:46.069Z,10.70
2024-02-29T14:48:13.011Z,9.68
2024-02-29T14:50:39.812Z,11.55
2024-02-29T14:53:07.937Z,10.75
2024-02-29T14:55:34.879Z,10.85
2024-02-29T14:58:01.880Z,10.57
2024-02-29T15:00:28.727Z,9.25
2024-02-29T15:02:55.535Z,9.23
2024-02-29T15:05:22.334Z,10.77
2024-02-29T15:07:49.382Z,11.13
2024-02-29T15:10:17.621Z,9.35
2024-02-29T15:12:44.451Z,13.40
2024-02-29T15:15:11.578Z,12.00
2024-02-29T15:17:38.650Z,9.75
2024-02-29T15:20:06.502Z,10.75
2024-02-29T15:22:33.316Z,12.55
2024-02-29T15:25:00.117Z,10.43
2024-02-29T15:27:28.272Z,13.38
2024-02-29T15:29:55.104Z,12.75
2024-02-29T15:32:21.877Z,11.70
2024-02-29T15:34:48.650Z,12.38
2024-02-29T15:37:15.515Z,13.90
2024-02-29T15:39:42.370Z,12.32
2024-02-29T15:42:09.177Z,11.65
2024-02-29T15:44:37.256Z,10.57
2024-02-29T15:47:04.361Z,12.20
2024-02-29T15:49:31.228Z,11.93
2024-02-29T15:51:58.063Z,12.82
2024-02-29T15:54:24.886Z,11.10
2024-02-29T15:56:51.712Z,11.60
2024-02-29T15:59:18.566Z,11.10
2024-02-29T16:01:46.892Z,10.77
2024-02-29T16:04:13.744Z,9.98
2024-02-29T16:06:40.621Z,10.13
2024-02-29T16:09:07.395Z,11.18
2024-02-29T16:11:34.200Z,11.05
2024-02-29T16:14:01.012Z,9.80
2024-02-29T16:16:27.809Z,10.65
2024-02-29T16:18:56.025Z,10.10
2024-02-29T16:21:22.794Z,10.07
2024-02-29T16:23:49.563Z,11.00
2024-02-29T16:26:16.363Z,12.13
2024-02-29T16:28:43.278Z,18.77
2024-02-29T16:31:10.455Z,23.30
2024-02-29T16:33:37.291Z,11.57
2024-02-29T16:36:06.915Z,10.50
2024-02-29T16:38:33.737Z,9.52
2024-02-29T16:41:00.500Z,10.38
2024-02-29T16:43:27.361Z,10.85
2024-02-29T16:45:54.346Z,10.05
2024-02-29T16:48:21.207Z,11.20
2024-02-29T16:50:47.978Z,10.50
2024-02-29T16:53:16.125Z,9.63
2024-02-29T16:55:42.942Z,11.68
2024-02-29T16:58:09.889Z,13.60
2024-02-29T17:00:36.681Z,12.05
2024-02-29T17:03:04.179Z,10.52
2024-02-29T17:05:31.733Z,9.70
2024-02-29T17:07:58.507Z,12.45
2024-02-29T17:10:27.754Z,9.90
2024-02-29T17:12:54.601Z,10.95
2024-02-29T17:15:21.396Z,11.10
2024-02-29T17:17:48.193Z,12.60
2024-02-29T17:20:15.147Z,13.75
2024-02-29T17:22:42.172Z,12.43
2024-02-29T17:25:09.989Z,11.77
2024-02-29T17:27:38.390Z,12.38
2024-02-29T17:30:06.294Z,12.98
2024-02-29T17:32:33.170Z,11.57
2024-02-29T17:34:59.968Z,11.85
2024-02-29T17:37:29.303Z,12.98
2024-02-29T17:39:57.451Z,14.05
2024-02-29T17:42:24.299Z,16.95
2024-02-29T17:44:52.415Z,18.08
2024-02-29T17:47:19.264Z,13.05
2024-02-29T17:49:46.049Z,13.23
2024-02-29T17:52:12.899Z,14.07
2024-02-29T17:54:39.774Z,12.60
2024-02-29T17:57:07.054Z,13.30
2024-02-29T17:59:33.878Z,13.32
2024-02-29T18:02:02.395Z,14.05
2024-02-29T18:04:29.430Z,13.02
2024-02-29T18:06:56.298Z,12.95
2024-02-29T18:09:23.090Z,14.88
2024-02-29T18:11:49.884Z,14.20
2024-02-29T18:14:16.678Z,13.85
2024-02-29T18:16:43.645Z,13.88
2024-02-29T18:19:11.903Z,14.55
2024-02-29T18:21:42.078Z,13.60
2024-02-29T18:24:08.902Z,13.57
2024-02-29T18:26:35.654Z,13.00
2024-02-29T18:29:02.524Z,16.08
2024-02-29T18:31:29.339Z,13.95
2024-02-29T18:33:56.179Z,13.75
2024-02-29T18:36:24.421Z,13.15
2024-02-29T18:38:51.232Z,14.32
2024-02-29T18:41:18.039Z,21.52
2024-02-29T18:43:44.871Z,17.10
2024-02-29T18:46:11.806Z,14.02
2024-02-29T18:48:38.619Z,13.30
2024-02-29T18:51:05.867Z,13.10
2024-02-29T18:53:33.937Z,13.68
2024-02-29T18:56:00.742Z,15.00
2024-02-29T18:58:27.554Z,14.32
2024-02-29T19:00:54.398Z,13.48
2024-02-29T19:03:21.212Z,13.55
2024-02-29T19:05:47.946Z,15.32
2024-02-29T19:08:14.670Z,14.43
2024-02-29T19:10:42.944Z,14.57
2024-02-29T19:13:09.748Z,14.82
2024-02-29T19:15:36.496Z,15.35
2024-02-29T19:18:03.707Z,15.20
2024-02-29T19:20:30.530Z,16.33
2024-02-29T19:22:57.311Z,15.55
2024-02-29T19:25:24.252Z,16.52
2024-02-29T19:27:52.438Z,16.83
2024-02-29T19:30:21.634Z,16.13
2024-02-29T19:32:49.840Z,14.52
2024-02-29T19:35:19.185Z,13.73
2024-02-29T19:37:45.960Z,15.25
2024-02-29T19:40:13.220Z,15.02
2024-02-29T19:42:40.028Z,16.38
2024-02-29T19:45:09.516Z,16.27
2024-02-29T19:47:37.594Z,18.95
2024-02-29T19:50:05.411Z,16.50
2024-02-29T19:52:35.588Z,15.88
2024-02-29T19:55:03.172Z,16.00
2024-02-29T19:57:29.949Z,16.63
2024-02-29T19:59:56.709Z,16.38
2024-02-29T20:02:24.794Z,16.98
2024-02-29T20:04:51.533Z,15.85
2024-02-29T20:07:18.343Z,14.55
2024-02-29T20:09:48.022Z,14.32
2024-02-29T20:12:14.776Z,14.63
2024-02-29T20:14:41.544Z,12.73
2024-02-29T20:17:08.391Z,12.55
2024-02-29T20:19:38.647Z,13.85
2024-02-29T20:22:05.708Z,13.05
2024-02-29T20:24:32.752Z,14.55
2024-02-29T20:26:59.510Z,14.73
2024-02-29T20:29:26.241Z,15.20
2024-02-29T20:31:52.982Z,15.85
2024-02-29T20:34:19.798Z,20.35
2024-02-29T20:36:47.991Z,21.55
2024-02-29T20:39:14.822Z,22.88
2024-02-29T20:41:41.613Z,26.13
2024-02-29T20:44:08.869Z,15.35
2024-02-29T20:46:35.747Z,16.13
2024-02-29T20:49:02.605Z,13.98
2024-02-29T20:51:29.477Z,12.65
2024-02-29T20:53:57.675Z,14.32
2024-02-29T20:56:24.438Z,14.38
2024-02-29T20:58:51.219Z,13.88
2024-02-29T21:01:18.167Z,11.75
2024-02-29T21:03:45.038Z,12.35
2024-02-29T21:06:11.908Z,12.13
2024-02-29T21:08:38.790Z,12.00
2024-02-29T21:11:07.024Z,13.70
2024-02-29T21:13:33.853Z,12.68
2024-02-29T21:16:00.916Z,13.00
2024-02-29T21:18:27.783Z,12.95
2024-02-29T21:20:54.588Z,13.23
2024-02-29T21:23:21.558Z,15.80
2024-02-29T21:25:48.341Z,16.55
2024-02-29T21:28:16.684Z,17.60
2024-02-29T21:30:43.465Z,11.38
2024-02-29T21:33:10.327Z,10.20
2024-02-29T21:35:37.201Z,14.52
2024-02-29T21:38:04.279Z,13.95
2024-02-29T21:40:31.226Z,13.55
2024-02-29T21:42:58.222Z,13.07
2024-02-29T21:45:26.361Z,12.07
2024-02-29T21:47:53.235Z,12.77
2024-02-29T21:50:20.174Z,13.68
2024-02-29T21:52:46.948Z,14.05
2024-02-29T21:55:15.739Z,12.60
2024-02-29T21:57:42.565Z,13.07
2024-02-29T22:00:10.758Z,12.02
2024-02-29T22:02:39.026Z,10.35
2024-02-29T22:05:06.627Z,9.32
2024-02-29T22:07:33.427Z,10.02
2024-02-29T22:10:00.298Z,11.02
2024-02-29T22:12:27.091Z,11.63
2024-02-29T22:14:53.932Z,11.18
2024-02-29T22:17:20.694Z,11.52
2024-02-29T22:19:48.933Z,10.68
2024-02-29T22:22:15.768Z,11.00
2024-02-29T22:24:42.553Z,11.00
2024-02-29T22:27:09.302Z,10.85
2024-02-29T22:29:36.087Z,9.90
2024-02-29T22:32:02.876Z,9.93
2024-02-29T22:34:29.739Z,10.60
2024-02-29T22:36:57.964Z,10.57
2024-02-29T22:39:24.814Z,9.93
2024-02-29T22:41:56.921Z,11.13
2024-02-29T22:44:28.157Z,10.73
2024-02-29T22:46:54.902Z,10.73
2024-02-29T22:49:21.767Z,10.82
2024-02-29T22:51:48.631Z,12.20
2024-02-29T22:54:16.764Z,9.40
2024-02-29T22:56:43.493Z,9.77
2024-02-29T22:59:10.244Z,10.23
2024-02-29T23:01:37.082Z,9.70
2024-02-29T23:04:04.090Z,10.13
2024-02-29T23:06:30.830Z,11.32
2024-02-29T23:08:57.559Z,9.38
2024-02-29T23:11:25.692Z,8.98
2024-02-29T23:13:52.574Z,12.00
2024-02-29T23:16:19.372Z,11.95
2024-02-29T23:18:46.198Z,14.60
2024-02-29T23:21:13.737Z,12.65
2024-02-29T23:23:40.495Z,12.90
2024-02-29T23:26:07.254Z,8.57
2024-02-29T23:28:35.397Z,7.72
2024-02-29T23:31:02.276Z,8.75
2024-02-29T23:33:29.062Z,10.65
2024-02-29T23:35:55.800Z,11.20
2024-02-29T23:38:22.568Z,12.38
2024-02-29T23:40:49.301Z,13.07
2024-02-29T23:43:16.092Z,14.35
2024-02-29T23:45:44.288Z,14.68
2024-02-29T23:48:11.545Z,12.95
2024-02-29T23:50:38.277Z,10.70
2024-02-29T23:53:05.007Z,12.48
2024-02-29T23:55:32.159Z,12.23
2024-02-29T23:57:59.041Z,12.73
